createdAt,value
2023-03-20T00:00:27.624Z,89.32
2023-03-20T00:03:13.887Z,93.57
2023-03-20T00:05:59.091Z,95.07
2023-03-20T00:08:46.040Z,97.27
2023-03-20T00:11:34.396Z,79.50
2023-03-20T00:14:21.919Z,78.33
2023-03-20T00:17:13.680Z,76.47
2023-03-20T00:19:59.145Z,80.70
2023-03-20T00:22:44.173Z,63.95
2023-03-20T00:25:29.564Z,63.42
2023-03-20T00:28:39.259Z,120.20
2023-03-20T00:31:42.512Z,71.65
2023-03-20T00:34:28.936Z,81.77
2023-03-20T00:37:14.186Z,82.85
2023-03-20T00:39:59.717Z,97.40
2023-03-20T00:42:49.222Z,152.17
2023-03-20T00:45:35.799Z,75.17
2023-03-20T00:48:21.302Z,87.38
2023-03-20T00:51:06.880Z,81.88
2023-03-20T00:53:52.318Z,81.40
2023-03-20T00:56:44.302Z,90.27
2023-03-20T00:59:55.056Z,75.70
2023-03-20T01:02:40.334Z,72.63
2023-03-20T01:05:26.993Z,73.27
2023-03-20T01:08:14.803Z,70.67
2023-03-20T01:11:00.175Z,74.82
2023-03-20T01:13:45.255Z,81.80
2023-03-20T01:16:30.890Z,77.07
2023-03-20T01:19:16.152Z,76.30
2023-03-20T01:22:01.183Z,85.13
2023-03-20T01:24:47.323Z,79.40
2023-03-20T01:27:32.340Z,84.23
2023-03-20T01:30:24.776Z,79.93
2023-03-20T01:33:21.045Z,84.30
2023-03-20T01:36:06.582Z,78.67
2023-03-20T01:38:57.865Z,75.00
2023-03-20T01:41:43.134Z,76.30
2023-03-20T01:44:31.082Z,72.30
2023-03-20T01:47:22.299Z,70.10
2023-03-20T01:50:22.339Z,78.70
2023-03-20T01:53:13.461Z,84.43
2023-03-20T01:56:00.211Z,73.00
2023-03-20T01:58:58.249Z,75.27
2023-03-20T02:01:44.925Z,75.63
2023-03-20T02:04:38.627Z,76.43
2023-03-20T02:07:24.519Z,82.23
2023-03-20T02:10:15.588Z,71.95
2023-03-20T02:13:03.092Z,72.30
2023-03-20T02:15:59.799Z,74.22
2023-03-20T02:18:48.042Z,73.43
2023-03-20T02:21:55.170Z,70.80
2023-03-20T02:25:08.855Z,72.77
2023-03-20T02:28:21.779Z,81.37
2023-03-20T02:31:25.767Z,78.78
2023-03-20T02:34:50.949Z,77.37
2023-03-20T02:37:45.506Z,76.13
2023-03-20T02:40:39.638Z,87.37
2023-03-20T02:43:52.843Z,96.23
2023-03-20T02:46:56.303Z,87.60
2023-03-20T02:49:53.864Z,91.50
2023-03-20T02:52:44.195Z,86.33
2023-03-20T02:55:39.778Z,89.57
2023-03-20T02:58:46.174Z,82.70
2023-03-20T03:01:41.208Z,87.87
2023-03-20T03:04:32.219Z,100.47
2023-03-20T03:07:20.529Z,88.90
2023-03-20T03:10:11.463Z,98.67
2023-03-20T03:13:00.773Z,89.70
2023-03-20T03:15:50.963Z,96.60
2023-03-20T03:18:39.491Z,104.40
2023-03-20T03:21:26.657Z,89.83
2023-03-20T03:24:40.770Z,97.23
2023-03-20T03:27:37.119Z,86.80
2023-03-20T03:30:28.681Z,91.37
2023-03-20T03:33:21.410Z,90.57
2023-03-20T03:36:34.332Z,89.33
2023-03-20T03:39:28.836Z,84.57
2023-03-20T03:42:26.450Z,89.93
2023-03-20T03:45:32.661Z,87.67
2023-03-20T03:48:31.468Z,74.27
2023-03-20T03:51:22.443Z,78.87
2023-03-20T03:54:19.711Z,75.93
2023-03-20T03:57:07.140Z,71.53
2023-03-20T03:59:53.949Z,72.03
2023-03-20T04:02:39.421Z,74.93
2023-03-20T04:05:30.342Z,78.93
2023-03-20T04:08:15.265Z,75.83
2023-03-20T04:11:00.921Z,76.97
2023-03-20T04:13:48.599Z,76.23
2023-03-20T04:16:33.765Z,76.13
2023-03-20T04:19:19.140Z,79.67
2023-03-20T04:22:04.433Z,70.97
2023-03-20T04:24:49.495Z,76.80
2023-03-20T04:27:34.956Z,77.33
2023-03-20T04:30:20.102Z,74.97
2023-03-20T04:33:05.372Z,78.80
2023-03-20T04:35:50.831Z,75.40
2023-03-20T04:38:36.628Z,78.17
2023-03-20T04:41:21.977Z,75.70
2023-03-20T04:44:07.428Z,75.90
2023-03-20T04:46:52.993Z,77.47
2023-03-20T04:49:38.033Z,72.07
2023-03-20T04:52:22.973Z,69.33
2023-03-20T04:55:08.527Z,75.20
2023-03-20T04:57:53.873Z,76.77
2023-03-20T05:00:38.605Z,72.87
2023-03-20T05:03:24.355Z,70.30
2023-03-20T05:06:09.828Z,69.73
2023-03-20T05:08:55.629Z,70.77
2023-03-20T05:11:40.569Z,67.63
2023-03-20T05:14:25.713Z,72.23
2023-03-20T05:17:11.141Z,67.60
2023-03-20T05:19:56.537Z,67.23
2023-03-20T05:22:41.343Z,63.67
2023-03-20T05:25:26.869Z,64.67
2023-03-20T05:28:11.826Z,68.57
2023-03-20T05:30:57.461Z,66.50
2023-03-20T05:33:43.445Z,66.80
2023-03-20T05:36:28.766Z,65.67
2023-03-20T05:39:14.308Z,70.93
2023-03-20T05:41:59.775Z,67.37
2023-03-20T05:44:44.742Z,61.90
2023-03-20T05:47:29.553Z,62.70
2023-03-20T05:50:15.272Z,62.10
2023-03-20T05:53:00.300Z,65.00
2023-03-20T05:55:45.323Z,66.63
2023-03-20T05:58:30.473Z,63.70
2023-03-20T06:01:15.784Z,69.27
2023-03-20T06:04:01.276Z,68.40
2023-03-20T06:06:46.643Z,70.60
2023-03-20T06:09:32.139Z,66.40
2023-03-20T06:12:16.964Z,67.90
2023-03-20T06:15:02.622Z,69.10
2023-03-20T06:17:47.812Z,67.90
2023-03-20T06:20:33.264Z,67.37
2023-03-20T06:23:18.636Z,62.50
2023-03-20T06:26:03.979Z,68.57
2023-03-20T06:28:49.286Z,68.37
2023-03-20T06:31:34.566Z,69.10
2023-03-20T06:34:19.883Z,65.93
2023-03-20T06:37:05.576Z,67.43
2023-03-20T06:39:50.903Z,70.37
2023-03-20T06:42:36.262Z,68.00
2023-03-20T06:45:22.891Z,63.60
2023-03-20T06:48:09.327Z,68.13
2023-03-20T06:50:54.340Z,62.97
2023-03-20T06:53:39.332Z,63.63
2023-03-20T06:56:24.803Z,57.93
2023-03-20T06:59:10.091Z,50.10
2023-03-20T07:01:55.509Z,46.33
2023-03-20T07:04:41.225Z,47.70
2023-03-20T07:07:26.499Z,44.87
2023-03-20T07:10:11.693Z,45.73
2023-03-20T07:12:57.101Z,45.63
2023-03-20T07:15:57.555Z,41.70
2023-03-20T07:18:51.076Z,42.03
2023-03-20T07:21:36.767Z,40.47
2023-03-20T07:24:22.006Z,36.07
2023-03-20T07:27:07.414Z,38.23
2023-03-20T07:29:52.714Z,35.60
2023-03-20T07:32:38.158Z,35.27
2023-03-20T07:35:23.190Z,34.67
2023-03-20T07:38:08.687Z,33.27
2023-03-20T07:40:54.358Z,30.73
2023-03-20T07:43:39.524Z,28.20
2023-03-20T07:46:24.512Z,26.60
2023-03-20T07:49:09.914Z,31.10
2023-03-20T07:51:55.036Z,32.43
2023-03-20T07:54:40.603Z,33.43
2023-03-20T07:57:25.955Z,31.03
2023-03-20T08:00:11.439Z,33.07
2023-03-20T08:02:57.207Z,32.93
2023-03-20T08:05:45.850Z,33.33
2023-03-20T08:08:32.577Z,34.50
2023-03-20T08:11:19.330Z,37.13
2023-03-20T08:14:04.352Z,36.80
2023-03-20T08:16:59.245Z,38.47
2023-03-20T08:19:51.510Z,37.10
2023-03-20T08:22:36.432Z,37.67
2023-03-20T08:25:21.362Z,37.50
2023-03-20T08:28:06.352Z,40.57
2023-03-20T08:30:52.205Z,35.73
2023-03-20T08:33:37.820Z,39.17
2023-03-20T08:36:23.874Z,40.33
2023-03-20T08:39:09.356Z,38.40
2023-03-20T08:41:54.454Z,35.23
2023-03-20T08:44:39.785Z,36.93
2023-03-20T08:47:25.035Z,37.30
2023-03-20T08:50:11.234Z,34.27
2023-03-20T08:52:56.538Z,35.33
2023-03-20T08:55:50.941Z,36.00
2023-03-20T08:58:36.283Z,36.83
2023-03-20T09:01:22.053Z,36.73
2023-03-20T09:04:07.141Z,39.60
2023-03-20T09:06:52.539Z,36.20
2023-03-20T09:09:37.408Z,39.07
2023-03-20T09:12:22.787Z,36.67
2023-03-20T09:15:08.209Z,39.73
2023-03-20T09:17:53.098Z,34.33
2023-03-20T09:20:38.675Z,36.47
2023-03-20T09:23:24.101Z,32.40
2023-03-20T09:26:09.482Z,34.37
2023-03-20T09:28:54.854Z,32.53
2023-03-20T09:31:39.973Z,33.57
2023-03-20T09:34:25.140Z,29.47
2023-03-20T09:37:10.089Z,30.27
2023-03-20T09:39:55.445Z,30.27
2023-03-20T09:43:33.094Z,30.97
2023-03-20T09:46:53.373Z,25.10
2023-03-20T09:49:47.489Z,27.57
2023-03-20T09:52:38.456Z,29.10
2023-03-20T09:55:32.746Z,29.03
2023-03-20T09:58:26.422Z,25.37
2023-03-20T10:01:14.010Z,26.10
2023-03-20T10:04:08.837Z,22.93
2023-03-20T10:06:54.981Z,23.63
2023-03-20T10:09:40.291Z,27.13
2023-03-20T10:12:53.394Z,21.63
2023-03-20T10:16:05.435Z,23.73
2023-03-20T10:19:29.458Z,22.60
2023-03-20T10:22:22.237Z,21.73
2023-03-20T10:25:22.172Z,22.27
2023-03-20T10:28:20.606Z,21.07
2023-03-20T10:31:14.141Z,21.53
2023-03-20T10:34:17.604Z,19.70
2023-03-20T10:37:30.749Z,25.50
2023-03-20T10:40:37.422Z,23.40
2023-03-20T10:43:38.161Z,30.83
2023-03-20T10:46:33.209Z,21.63
2023-03-20T10:49:31.683Z,23.23
2023-03-20T10:52:20.597Z,21.97
2023-03-20T10:55:21.901Z,22.17
2023-03-20T10:58:19.527Z,25.30
2023-03-20T11:01:05.347Z,25.73
2023-03-20T11:03:50.517Z,23.90
2023-03-20T11:06:43.823Z,24.60
2023-03-20T11:09:28.855Z,25.73
2023-03-20T11:12:20.299Z,25.60
2023-03-20T11:15:24.405Z,24.70
2023-03-20T11:18:16.742Z,25.10
2023-03-20T11:21:05.068Z,25.60
2023-03-20T11:23:51.340Z,24.60
2023-03-20T11:26:40.252Z,23.70
2023-03-20T11:29:33.167Z,22.27
2023-03-20T11:32:31.800Z,23.33
2023-03-20T11:35:17.410Z,24.73
2023-03-20T11:38:30.613Z,24.30
2023-03-20T11:41:34.276Z,21.83
2023-03-20T11:44:34.105Z,21.60
2023-03-20T11:47:25.211Z,19.37
2023-03-20T11:50:38.080Z,22.87
2023-03-20T11:53:28.269Z,20.17
2023-03-20T11:56:20.730Z,19.00
2023-03-20T11:59:16.547Z,19.83
2023-03-20T12:02:05.489Z,18.27
2023-03-20T12:04:50.530Z,20.83
2023-03-20T12:07:37.992Z,17.37
2023-03-20T12:10:30.658Z,19.23
2023-03-20T12:13:25.915Z,16.77
2023-03-20T12:16:15.611Z,16.48
2023-03-20T12:19:09.399Z,17.83
2023-03-20T12:22:21.149Z,17.70
2023-03-20T12:25:26.444Z,19.03
2023-03-20T12:28:18.021Z,19.80
2023-03-20T12:31:30.463Z,16.37
2023-03-20T12:34:32.926Z,16.63
2023-03-20T12:37:18.453Z,21.23
2023-03-20T12:40:04.233Z,19.57
2023-03-20T12:42:58.943Z,19.77
2023-03-20T12:45:58.874Z,20.95
2023-03-20T12:48:50.953Z,22.13
2023-03-20T12:51:42.391Z,22.30
2023-03-20T12:54:44.061Z,22.43
2023-03-20T12:57:41.786Z,20.27
2023-03-20T13:00:34.922Z,19.80
2023-03-20T13:03:31.718Z,22.20
2023-03-20T13:06:41.570Z,21.80
2023-03-20T13:09:50.822Z,19.33
2023-03-20T13:12:46.286Z,23.60
2023-03-20T13:15:49.963Z,19.97
2023-03-20T13:19:00.335Z,20.10
2023-03-20T13:22:05.177Z,19.27
2023-03-20T13:25:00.721Z,20.77
2023-03-20T13:27:53.478Z,19.70
2023-03-20T13:31:02.570Z,21.00
2023-03-20T13:40:28.772Z,16.13
2023-03-20T13:43:40.044Z,17.03
2023-03-20T13:46:29.086Z,17.23
2023-03-20T13:52:04.287Z,20.87
2023-03-20T13:55:15.561Z,14.43
2023-03-20T13:58:19.080Z,16.93
2023-03-20T14:01:26.210Z,18.57
2023-03-20T14:04:17.895Z,16.33
2023-03-20T14:07:34.016Z,16.40
2023-03-20T14:10:23.163Z,16.30
2023-03-20T14:13:15.052Z,18.40
2023-03-20T14:16:09.849Z,16.37
2023-03-20T14:19:16.988Z,17.57
2023-03-20T14:22:01.973Z,18.97
2023-03-20T14:24:54.745Z,21.97
2023-03-20T14:28:06.572Z,16.67
2023-03-20T14:31:12.370Z,16.90
2023-03-20T14:34:08.491Z,19.17
2023-03-20T14:37:02.902Z,16.37
2023-03-20T14:40:03.323Z,19.90
2023-03-20T14:45:47.277Z,18.87
2023-03-20T14:48:41.258Z,20.87
2023-03-20T14:51:43.730Z,18.93
2023-03-20T14:54:30.306Z,16.67
2023-03-20T14:57:55.659Z,17.67
2023-03-20T15:00:46.629Z,19.13
2023-03-20T15:03:32.002Z,21.27
2023-03-20T15:06:20.950Z,17.77
2023-03-20T15:09:10.341Z,19.87
2023-03-20T15:11:57.670Z,76.13
2023-03-20T15:14:59.367Z,19.30
2023-03-20T15:17:45.936Z,18.03
2023-03-20T15:20:31.154Z,21.97
2023-03-20T15:23:16.024Z,17.73
2023-03-20T15:26:01.196Z,17.60
2023-03-20T15:28:47.168Z,17.10
2023-03-20T15:31:38.476Z,14.23
2023-03-20T15:34:27.772Z,15.50
2023-03-20T15:37:15.895Z,15.83
2023-03-20T15:40:11.334Z,19.67
2023-03-20T15:43:03.113Z,16.07
2023-03-20T15:45:48.048Z,17.47
2023-03-20T15:48:33.484Z,17.87
2023-03-20T15:51:27.603Z,14.77
2023-03-20T15:54:17.874Z,16.90
2023-03-20T15:57:03.977Z,17.07
2023-03-20T15:59:49.334Z,16.90
2023-03-20T16:02:36.960Z,19.47
2023-03-20T16:05:26.081Z,16.97
2023-03-20T16:08:22.318Z,15.80
2023-03-20T16:11:15.985Z,17.17
2023-03-20T16:14:01.516Z,16.87
2023-03-20T16:16:49.454Z,18.73
2023-03-20T16:19:34.802Z,19.33
2023-03-20T16:22:31.251Z,19.40
2023-03-20T16:25:18.422Z,16.10
2023-03-20T16:28:05.315Z,19.80
2023-03-20T16:30:50.876Z,18.43
2023-03-20T16:33:38.981Z,18.70
2023-03-20T16:36:33.742Z,20.10
2023-03-20T16:39:21.934Z,16.77
2023-03-20T16:42:22.601Z,23.47
2023-03-20T16:45:35.922Z,19.60
2023-03-20T16:48:41.946Z,21.53
2023-03-20T16:51:30.140Z,20.43
2023-03-20T16:54:20.362Z,20.97
2023-03-20T16:57:17.772Z,21.53
2023-03-20T17:00:48.498Z,22.13
2023-03-20T17:03:53.258Z,22.93
2023-03-20T17:06:46.016Z,22.40
2023-03-20T17:09:31.712Z,22.73
2023-03-20T17:12:18.482Z,20.83
2023-03-20T17:15:03.991Z,23.90
2023-03-20T17:17:49.190Z,25.67
2023-03-20T17:20:34.750Z,24.73
2023-03-20T17:23:22.388Z,24.67
2023-03-20T17:26:11.483Z,24.37
2023-03-20T17:28:56.865Z,25.20
2023-03-20T17:31:42.115Z,26.93
2023-03-20T17:34:27.430Z,29.07
2023-03-20T17:37:17.217Z,24.60
2023-03-20T17:40:03.137Z,25.37
2023-03-20T17:42:48.649Z,31.03
2023-03-20T17:45:33.867Z,29.07
2023-03-20T17:48:21.071Z,27.13
2023-03-20T17:51:07.897Z,28.97
2023-03-20T17:53:53.367Z,25.03
2023-03-20T17:56:38.220Z,25.33
2023-03-20T17:59:23.513Z,27.10
2023-03-20T18:02:08.940Z,26.40
2023-03-20T18:04:54.030Z,25.47
2023-03-20T18:07:39.427Z,24.53
2023-03-20T18:10:28.485Z,27.37
2023-03-20T18:13:13.801Z,25.73
2023-03-20T18:15:59.250Z,27.60
2023-03-20T18:18:44.625Z,24.23
2023-03-20T18:21:30.162Z,26.20
2023-03-20T18:24:17.338Z,23.03
2023-03-20T18:27:02.648Z,25.27
2023-03-20T18:29:47.938Z,26.23
2023-03-20T18:32:33.166Z,24.57
2023-03-20T18:35:18.700Z,25.03
2023-03-20T18:38:04.423Z,22.30
2023-03-20T18:40:49.580Z,21.63
2023-03-20T18:43:34.653Z,23.10
2023-03-20T18:46:22.208Z,20.13
2023-03-20T18:49:15.837Z,27.17
2023-03-20T18:52:00.694Z,23.23
2023-03-20T18:54:45.625Z,21.03
2023-03-20T18:57:30.995Z,20.77
2023-03-20T19:00:24.743Z,22.23
2023-03-20T19:03:11.225Z,22.83
2023-03-20T19:05:58.334Z,22.60
2023-03-20T19:08:45.176Z,23.23
2023-03-20T19:11:30.331Z,24.37
2023-03-20T19:14:18.911Z,28.60
2023-03-20T19:17:04.166Z,23.93
2023-03-20T19:19:49.110Z,22.83
2023-03-20T19:22:34.160Z,27.67
2023-03-20T19:25:19.035Z,22.20
2023-03-20T19:28:05.660Z,30.63
2023-03-20T19:30:54.075Z,27.23
2023-03-20T19:33:45.644Z,27.20
2023-03-20T19:36:33.818Z,25.40
2023-03-20T19:39:20.727Z,28.73
2023-03-20T19:42:19.882Z,29.53
2023-03-20T19:45:11.450Z,28.70
2023-03-20T19:47:57.384Z,25.67
2023-03-20T19:50:51.182Z,32.20
2023-03-20T19:53:37.551Z,29.43
2023-03-20T19:56:23.681Z,29.60
2023-03-20T19:59:08.653Z,33.47
2023-03-20T20:01:56.654Z,31.40
2023-03-20T20:04:43.740Z,31.37
2023-03-20T20:08:09.044Z,27.43
2023-03-20T20:10:54.663Z,27.90
2023-03-20T20:14:03.788Z,30.60
2023-03-20T20:16:47.605Z,29.13
2023-03-20T20:19:35.834Z,31.17
2023-03-20T20:22:26.168Z,32.43
2023-03-20T20:25:13.721Z,32.47
2023-03-20T20:27:58.696Z,32.80
2023-03-20T20:30:49.511Z,32.53
2023-03-20T20:33:34.761Z,31.53
2023-03-20T20:37:08.021Z,31.33
2023-03-20T20:39:25.666Z,31.40
2023-03-20T20:42:11.046Z,32.07
2023-03-20T20:44:56.691Z,35.00
2023-03-20T20:47:44.061Z,32.93
2023-03-20T20:50:31.363Z,32.23
2023-03-20T20:53:16.402Z,32.57
2023-03-20T20:56:01.724Z,29.37
2023-03-20T20:58:46.780Z,31.03
2023-03-20T21:01:32.219Z,31.60
2023-03-20T21:04:23.575Z,28.73
2023-03-20T21:07:13.442Z,27.67
2023-03-20T21:09:58.890Z,30.10
2023-03-20T21:12:58.042Z,28.83
2023-03-20T21:15:44.446Z,30.30
2023-03-20T21:18:30.179Z,29.23
2023-03-20T21:21:15.936Z,29.57
2023-03-20T21:24:01.853Z,28.17
2023-03-20T21:26:46.927Z,29.10
2023-03-20T21:29:32.515Z,28.53
2023-03-20T21:32:20.538Z,25.57
2023-03-20T21:35:06.450Z,24.73
2023-03-20T21:40:56.782Z,23.30
2023-03-20T21:43:47.876Z,27.83
2023-03-20T21:50:31.147Z,26.17
2023-03-20T21:53:40.328Z,23.23
2023-03-20T21:56:53.936Z,27.20
2023-03-20T21:59:50.440Z,25.73
2023-03-20T22:02:12.278Z,26.97
2023-03-20T22:05:48.391Z,25.43
2023-03-20T22:12:01.665Z,26.53
2023-03-20T22:27:34.935Z,26.57
2023-03-20T22:33:58.437Z,23.43
2023-03-20T22:36:46.847Z,26.70
2023-03-20T22:42:48.972Z,29.87
2023-03-20T22:45:19.657Z,25.80
2023-03-20T22:48:12.837Z,25.23
2023-03-20T22:50:58.506Z,26.67
2023-03-20T22:53:43.569Z,32.00
2023-03-20T22:56:28.924Z,24.27
2023-03-20T22:59:14.216Z,26.13
2023-03-20T23:01:59.645Z,23.80
2023-03-20T23:04:47.508Z,24.73
2023-03-20T23:07:32.485Z,26.83
2023-03-20T23:10:18.030Z,25.90
2023-03-20T23:13:03.490Z,23.97
2023-03-20T23:15:49.643Z,26.07
2023-03-20T23:18:34.936Z,24.97
2023-03-20T23:21:19.789Z,24.97
2023-03-20T23:24:05.531Z,25.20
2023-03-20T23:26:50.698Z,27.87
2023-03-20T23:29:36.054Z,28.53
2023-03-20T23:32:21.502Z,26.53
2023-03-20T23:35:08.299Z,24.90
2023-03-20T23:37:53.763Z,29.40
2023-03-20T23:40:39.598Z,27.87
2023-03-20T23:43:25.098Z,28.63
2023-03-20T23:46:10.668Z,30.90
2023-03-20T23:48:55.756Z,26.93
2023-03-20T23:51:40.794Z,26.73
2023-03-20T23:54:25.856Z,27.63
2023-03-20T23:57:10.888Z,27.73
2023-03-20T23:59:56.297Z,26.63
